sensor_id;sensor_type;location;lat;lon;timestamp;P1;durP1;ratioP1;P2;durP2;ratioP2
30519;SDS011;17300;50.374;8.006;2023-02-17T00:00:57;18.33;;;14.67;;
30519;SDS011;17300;50.374;8.006;2023-02-17T00:03:23;16.97;;;15.03;;
30519;SDS011;17300;50.374;8.006;2023-02-17T00:05:50;17.50;;;15.60;;
30519;SDS011;17300;50.374;8.006;2023-02-17T00:08:17;17.67;;;15.77;;
30519;SDS011;17300;50.374;8.006;2023-02-17T00:10:44;17.03;;;15.23;;
30519;SDS011;17300;50.374;8.006;2023-02-17T00:13:10;17.57;;;15.20;;
30519;SDS011;17300;50.374;8.006;2023-02-17T00:15:37;17.03;;;15.23;;
30519;SDS011;17300;50.374;8.006;2023-02-17T00:18:05;16.73;;;14.97;;
30519;SDS011;17300;50.374;8.006;2023-02-17T00:20:32;18.47;;;15.47;;
30519;SDS011;17300;50.374;8.006;2023-02-17T00:22:59;20.23;;;16.63;;
30519;SDS011;17300;50.374;8.006;2023-02-17T00:25:25;18.10;;;16.00;;
30519;SDS011;17300;50.374;8.006;2023-02-17T00:27:52;17.70;;;15.77;;
30519;SDS011;17300;50.374;8.006;2023-02-17T00:30:18;17.30;;;15.47;;
30519;SDS011;17300;50.374;8.006;2023-02-17T00:32:45;17.77;;;15.87;;
30519;SDS011;17300;50.374;8.006;2023-02-17T00:35:13;17.57;;;15.77;;
30519;SDS011;17300;50.374;8.006;2023-02-17T00:37:40;17.87;;;15.70;;
30519;SDS011;17300;50.374;8.006;2023-02-17T00:40:09;17.07;;;15.27;;
30519;SDS011;17300;50.374;8.006;2023-02-17T00:42:36;17.70;;;15.90;;
30519;SDS011;17300;50.374;8.006;2023-02-17T00:45:03;17.10;;;15.30;;
30519;SDS011;17300;50.374;8.006;2023-02-17T00:47:30;16.97;;;15.17;;
30519;SDS011;17300;50.374;8.006;2023-02-17T00:49:57;16.63;;;14.83;;
30519;SDS011;17300;50.374;8.006;2023-02-17T00:52:25;17.57;;;15.63;;
30519;SDS011;17300;50.374;8.006;2023-02-17T00:54:52;17.10;;;15.37;;
30519;SDS011;17300;50.374;8.006;2023-02-17T00:57:18;17.97;;;15.57;;
30519;SDS011;17300;50.374;8.006;2023-02-17T00:59:45;18.13;;;15.13;;
30519;SDS011;17300;50.374;8.006;2023-02-17T01:02:12;16.80;;;14.77;;
30519;SDS011;17300;50.374;8.006;2023-02-17T01:04:38;17.00;;;15.20;;
30519;SDS011;17300;50.374;8.006;2023-02-17T01:07:05;17.27;;;15.57;;
30519;SDS011;17300;50.374;8.006;2023-02-17T01:09:33;15.87;;;14.27;;
30519;SDS011;17300;50.374;8.006;2023-02-17T01:11:59;16.03;;;14.33;;
30519;SDS011;17300;50.374;8.006;2023-02-17T01:14:26;16.40;;;14.70;;
30519;SDS011;17300;50.374;8.006;2023-02-17T01:16:53;16.57;;;14.87;;
30519;SDS011;17300;50.374;8.006;2023-02-17T01:19:19;16.07;;;14.20;;
30519;SDS011;17300;50.374;8.006;2023-02-17T01:21:46;16.27;;;14.50;;
30519;SDS011;17300;50.374;8.006;2023-02-17T01:24:13;16.23;;;14.20;;
30519;SDS011;17300;50.374;8.006;2023-02-17T01:26:41;15.93;;;14.23;;
30519;SDS011;17300;50.374;8.006;2023-02-17T01:29:08;15.50;;;13.83;;
30519;SDS011;17300;50.374;8.006;2023-02-17T01:31:35;15.60;;;14.00;;
30519;SDS011;17300;50.374;8.006;2023-02-17T01:34:02;15.70;;;14.10;;
30519;SDS011;17300;50.374;8.006;2023-02-17T01:36:29;15.90;;;14.33;;
30519;SDS011;17300;50.374;8.006;2023-02-17T01:38:57;17.23;;;15.30;;
30519;SDS011;17300;50.374;8.006;2023-02-17T01:41:24;16.00;;;14.30;;
30519;SDS011;17300;50.374;8.006;2023-02-17T01:44:08;15.23;;;13.67;;
30519;SDS011;17300;50.374;8.006;2023-02-17T01:46:37;14.73;;;13.30;;
30519;SDS011;17300;50.374;8.006;2023-02-17T01:49:08;15.30;;;13.80;;
30519;SDS011;17300;50.374;8.006;2023-02-17T01:51:43;14.80;;;13.30;;
30519;SDS011;17300;50.374;8.006;2023-02-17T01:54:14;14.93;;;13.43;;
30519;SDS011;17300;50.374;8.006;2023-02-17T01:56:44;15.07;;;13.57;;
30519;SDS011;17300;50.374;8.006;2023-02-17T01:59:15;15.13;;;13.13;;
30519;SDS011;17300;50.374;8.006;2023-02-17T02:01:44;15.07;;;13.47;;
30519;SDS011;17300;50.374;8.006;2023-02-17T02:04:12;15.87;;;14.07;;
30519;SDS011;17300;50.374;8.006;2023-02-17T02:06:42;14.87;;;13.37;;
30519;SDS011;17300;50.374;8.006;2023-02-17T02:09:10;14.10;;;12.63;;
30519;SDS011;17300;50.374;8.006;2023-02-17T02:11:41;14.87;;;13.30;;
30519;SDS011;17300;50.374;8.006;2023-02-17T02:14:08;14.80;;;13.40;;
30519;SDS011;17300;50.374;8.006;2023-02-17T02:16:41;16.10;;;14.40;;
30519;SDS011;17300;50.374;8.006;2023-02-17T02:19:17;13.27;;;11.97;;
30519;SDS011;17300;50.374;8.006;2023-02-17T02:25:10;13.10;;;11.80;;
30519;SDS011;17300;50.374;8.006;2023-02-17T02:27:56;14.37;;;12.80;;
30519;SDS011;17300;50.374;8.006;2023-02-17T02:30:37;13.73;;;12.43;;
30519;SDS011;17300;50.374;8.006;2023-02-17T02:33:26;14.17;;;12.77;;
30519;SDS011;17300;50.374;8.006;2023-02-17T02:35:59;14.40;;;12.90;;
30519;SDS011;17300;50.374;8.006;2023-02-17T02:38:31;13.77;;;12.37;;
30519;SDS011;17300;50.374;8.006;2023-02-17T02:41:04;13.17;;;11.87;;
30519;SDS011;17300;50.374;8.006;2023-02-17T02:43:36;13.20;;;11.90;;
30519;SDS011;17300;50.374;8.006;2023-02-17T02:46:03;12.37;;;11.17;;
30519;SDS011;17300;50.374;8.006;2023-02-17T02:48:32;11.43;;;10.23;;
30519;SDS011;17300;50.374;8.006;2023-02-17T02:51:02;9.80;;;8.83;;
30519;SDS011;17300;50.374;8.006;2023-02-17T02:56:30;8.40;;;7.60;;
30519;SDS011;17300;50.374;8.006;2023-02-17T02:59:09;7.73;;;6.77;;
30519;SDS011;17300;50.374;8.006;2023-02-17T03:01:46;6.60;;;5.93;;
30519;SDS011;17300;50.374;8.006;2023-02-17T03:04:22;5.87;;;5.30;;
30519;SDS011;17300;50.374;8.006;2023-02-17T03:06:56;5.50;;;5.00;;
30519;SDS011;17300;50.374;8.006;2023-02-17T03:09:28;5.03;;;4.40;;
30519;SDS011;17300;50.374;8.006;2023-02-17T03:11:56;4.73;;;4.33;;
30519;SDS011;17300;50.374;8.006;2023-02-17T03:14:24;5.07;;;4.57;;
30519;SDS011;17300;50.374;8.006;2023-02-17T03:16:51;4.83;;;4.43;;
30519;SDS011;17300;50.374;8.006;2023-02-17T03:19:21;4.90;;;4.47;;
30519;SDS011;17300;50.374;8.006;2023-02-17T03:21:50;4.43;;;4.03;;
30519;SDS011;17300;50.374;8.006;2023-02-17T03:24:20;4.60;;;4.20;;
30519;SDS011;17300;50.374;8.006;2023-02-17T03:26:47;4.50;;;4.10;;
30519;SDS011;17300;50.374;8.006;2023-02-17T03:29:14;4.63;;;4.23;;
30519;SDS011;17300;50.374;8.006;2023-02-17T03:31:40;4.27;;;3.87;;
30519;SDS011;17300;50.374;8.006;2023-02-17T03:34:07;4.03;;;3.73;;
30519;SDS011;17300;50.374;8.006;2023-02-17T03:36:35;3.23;;;3.00;;
30519;SDS011;17300;50.374;8.006;2023-02-17T03:39:02;3.70;;;3.30;;
30519;SDS011;17300;50.374;8.006;2023-02-17T03:41:29;3.70;;;3.40;;
30519;SDS011;17300;50.374;8.006;2023-02-17T03:43:55;3.50;;;3.20;;
30519;SDS011;17300;50.374;8.006;2023-02-17T03:46:22;3.47;;;3.17;;
30519;SDS011;17300;50.374;8.006;2023-02-17T03:48:49;4.03;;;3.50;;
30519;SDS011;17300;50.374;8.006;2023-02-17T03:51:16;3.20;;;2.90;;
30519;SDS011;17300;50.374;8.006;2023-02-17T03:53:46;3.43;;;3.13;;
30519;SDS011;17300;50.374;8.006;2023-02-17T03:56:13;3.47;;;3.17;;
30519;SDS011;17300;50.374;8.006;2023-02-17T03:58:41;3.20;;;2.87;;
30519;SDS011;17300;50.374;8.006;2023-02-17T04:01:08;3.13;;;2.83;;
30519;SDS011;17300;50.374;8.006;2023-02-17T04:03:38;3.20;;;2.90;;
30519;SDS011;17300;50.374;8.006;2023-02-17T04:06:06;3.00;;;2.80;;
30519;SDS011;17300;50.374;8.006;2023-02-17T04:08:33;2.90;;;2.63;;
30519;SDS011;17300;50.374;8.006;2023-02-17T04:11:02;2.93;;;2.73;;
30519;SDS011;17300;50.374;8.006;2023-02-17T04:13:29;3.17;;;2.87;;
30519;SDS011;17300;50.374;8.006;2023-02-17T04:15:56;2.80;;;2.60;;
30519;SDS011;17300;50.374;8.006;2023-02-17T04:18:25;2.50;;;2.33;;
30519;SDS011;17300;50.374;8.006;2023-02-17T04:20:52;3.33;;;2.87;;
30519;SDS011;17300;50.374;8.006;2023-02-17T04:23:19;2.47;;;2.27;;
30519;SDS011;17300;50.374;8.006;2023-02-17T04:25:46;2.50;;;2.30;;
30519;SDS011;17300;50.374;8.006;2023-02-17T04:28:15;2.30;;;2.10;;
30519;SDS011;17300;50.374;8.006;2023-02-17T04:30:42;3.07;;;2.50;;
30519;SDS011;17300;50.374;8.006;2023-02-17T04:33:09;2.80;;;2.57;;
30519;SDS011;17300;50.374;8.006;2023-02-17T04:35:36;2.50;;;2.17;;
30519;SDS011;17300;50.374;8.006;2023-02-17T04:38:03;2.03;;;1.93;;
30519;SDS011;17300;50.374;8.006;2023-02-17T04:40:29;2.00;;;1.80;;
30519;SDS011;17300;50.374;8.006;2023-02-17T04:42:57;2.30;;;1.93;;
30519;SDS011;17300;50.374;8.006;2023-02-17T04:45:25;2.00;;;1.90;;
30519;SDS011;17300;50.374;8.006;2023-02-17T04:47:51;1.90;;;1.80;;
30519;SDS011;17300;50.374;8.006;2023-02-17T04:50:18;2.00;;;1.90;;
30519;SDS011;17300;50.374;8.006;2023-02-17T04:52:45;2.00;;;1.80;;
30519;SDS011;17300;50.374;8.006;2023-02-17T04:55:11;2.00;;;1.90;;
30519;SDS011;17300;50.374;8.006;2023-02-17T04:57:38;1.90;;;1.80;;
30519;SDS011;17300;50.374;8.006;2023-02-17T05:00:05;1.93;;;1.83;;
30519;SDS011;17300;50.374;8.006;2023-02-17T05:02:34;1.60;;;1.50;;
30519;SDS011;17300;50.374;8.006;2023-02-17T05:05:01;1.80;;;1.70;;
30519;SDS011;17300;50.374;8.006;2023-02-17T05:07:28;1.83;;;1.63;;
30519;SDS011;17300;50.374;8.006;2023-02-17T05:09:54;4.97;;;2.03;;
30519;SDS011;17300;50.374;8.006;2023-02-17T05:12:21;1.90;;;1.80;;
30519;SDS011;17300;50.374;8.006;2023-02-17T05:14:47;1.87;;;1.70;;
30519;SDS011;17300;50.374;8.006;2023-02-17T05:17:14;1.87;;;1.77;;
30519;SDS011;17300;50.374;8.006;2023-02-17T05:19:42;1.77;;;1.67;;
30519;SDS011;17300;50.374;8.006;2023-02-17T05:22:09;1.70;;;1.60;;
30519;SDS011;17300;50.374;8.006;2023-02-17T05:24:35;1.70;;;1.60;;
30519;SDS011;17300;50.374;8.006;2023-02-17T05:27:02;1.67;;;1.57;;
30519;SDS011;17300;50.374;8.006;2023-02-17T05:29:29;1.90;;;1.80;;
30519;SDS011;17300;50.374;8.006;2023-02-17T05:31:55;1.80;;;1.70;;
30519;SDS011;17300;50.374;8.006;2023-02-17T05:34:22;1.73;;;1.63;;
30519;SDS011;17300;50.374;8.006;2023-02-17T05:36:50;1.50;;;1.40;;
30519;SDS011;17300;50.374;8.006;2023-02-17T05:39:17;1.67;;;1.57;;
30519;SDS011;17300;50.374;8.006;2023-02-17T05:41:43;1.53;;;1.43;;
30519;SDS011;17300;50.374;8.006;2023-02-17T05:44:10;1.50;;;1.40;;
30519;SDS011;17300;50.374;8.006;2023-02-17T05:46:36;1.90;;;1.80;;
30519;SDS011;17300;50.374;8.006;2023-02-17T05:49:03;1.80;;;1.70;;
30519;SDS011;17300;50.374;8.006;2023-02-17T05:51:30;1.70;;;1.60;;
30519;SDS011;17300;50.374;8.006;2023-02-17T05:53:58;1.63;;;1.53;;
30519;SDS011;17300;50.374;8.006;2023-02-17T05:56:24;1.80;;;1.70;;
30519;SDS011;17300;50.374;8.006;2023-02-17T05:58:51;1.70;;;1.60;;
30519;SDS011;17300;50.374;8.006;2023-02-17T06:01:18;2.27;;;1.97;;
30519;SDS011;17300;50.374;8.006;2023-02-17T06:03:45;1.90;;;1.70;;
30519;SDS011;17300;50.374;8.006;2023-02-17T06:06:11;1.87;;;1.77;;
30519;SDS011;17300;50.374;8.006;2023-02-17T06:08:38;2.03;;;1.93;;
30519;SDS011;17300;50.374;8.006;2023-02-17T06:11:06;1.90;;;1.80;;
30519;SDS011;17300;50.374;8.006;2023-02-17T06:13:33;2.23;;;2.03;;
30519;SDS011;17300;50.374;8.006;2023-02-17T06:16:00;2.13;;;1.97;;
30519;SDS011;17300;50.374;8.006;2023-02-17T06:18:27;2.07;;;1.97;;
30519;SDS011;17300;50.374;8.006;2023-02-17T06:20:54;2.30;;;2.10;;
30519;SDS011;17300;50.374;8.006;2023-02-17T06:23:21;2.17;;;1.90;;
30519;SDS011;17300;50.374;8.006;2023-02-17T06:25:48;2.50;;;2.30;;
30519;SDS011;17300;50.374;8.006;2023-02-17T06:28:16;2.47;;;2.27;;
30519;SDS011;17300;50.374;8.006;2023-02-17T06:30:43;2.70;;;2.50;;
30519;SDS011;17300;50.374;8.006;2023-02-17T06:33:10;2.63;;;2.43;;
30519;SDS011;17300;50.374;8.006;2023-02-17T06:35:37;2.60;;;2.40;;
30519;SDS011;17300;50.374;8.006;2023-02-17T06:38:04;2.73;;;2.53;;
30519;SDS011;17300;50.374;8.006;2023-02-17T06:40:30;2.83;;;2.60;;
30519;SDS011;17300;50.374;8.006;2023-02-17T06:42:57;3.13;;;2.83;;
30519;SDS011;17300;50.374;8.006;2023-02-17T06:45:25;2.67;;;2.47;;
30519;SDS011;17300;50.374;8.006;2023-02-17T06:47:52;2.80;;;2.60;;
30519;SDS011;17300;50.374;8.006;2023-02-17T06:50:18;2.80;;;2.60;;
30519;SDS011;17300;50.374;8.006;2023-02-17T06:52:45;3.30;;;3.00;;
30519;SDS011;17300;50.374;8.006;2023-02-17T06:55:12;3.27;;;2.97;;
30519;SDS011;17300;50.374;8.006;2023-02-17T06:57:38;3.50;;;3.20;;
30519;SDS011;17300;50.374;8.006;2023-02-17T07:00:06;3.20;;;3.00;;
30519;SDS011;17300;50.374;8.006;2023-02-17T07:02:34;5.70;;;4.47;;
30519;SDS011;17300;50.374;8.006;2023-02-17T07:05:02;4.20;;;3.80;;
30519;SDS011;17300;50.374;8.006;2023-02-17T07:07:29;4.23;;;3.83;;
30519;SDS011;17300;50.374;8.006;2023-02-17T07:09:56;3.90;;;3.50;;
30519;SDS011;17300;50.374;8.006;2023-02-17T07:12:22;3.33;;;3.03;;
30519;SDS011;17300;50.374;8.006;2023-02-17T07:14:49;3.60;;;3.30;;
30519;SDS011;17300;50.374;8.006;2023-02-17T07:17:16;3.47;;;3.17;;
30519;SDS011;17300;50.374;8.006;2023-02-17T07:19:44;5.30;;;4.10;;
30519;SDS011;17300;50.374;8.006;2023-02-17T07:22:10;3.73;;;3.43;;
30519;SDS011;17300;50.374;8.006;2023-02-17T07:24:37;3.63;;;3.33;;
30519;SDS011;17300;50.374;8.006;2023-02-17T07:27:04;3.77;;;3.47;;
30519;SDS011;17300;50.374;8.006;2023-02-17T07:29:31;3.80;;;3.50;;
30519;SDS011;17300;50.374;8.006;2023-02-17T07:31:57;4.17;;;3.77;;
30519;SDS011;17300;50.374;8.006;2023-02-17T07:34:24;4.23;;;3.83;;
30519;SDS011;17300;50.374;8.006;2023-02-17T07:36:52;4.30;;;3.93;;
30519;SDS011;17300;50.374;8.006;2023-02-17T07:39:19;4.23;;;3.77;;
30519;SDS011;17300;50.374;8.006;2023-02-17T07:41:45;3.63;;;3.33;;
30519;SDS011;17300;50.374;8.006;2023-02-17T07:44:12;3.83;;;3.53;;
30519;SDS011;17300;50.374;8.006;2023-02-17T07:46:39;3.67;;;3.37;;
30519;SDS011;17300;50.374;8.006;2023-02-17T07:49:06;3.90;;;3.60;;
30519;SDS011;17300;50.374;8.006;2023-02-17T07:51:33;4.70;;;4.00;;
30519;SDS011;17300;50.374;8.006;2023-02-17T07:54:01;4.20;;;3.80;;
30519;SDS011;17300;50.374;8.006;2023-02-17T07:56:27;4.20;;;3.80;;
30519;SDS011;17300;50.374;8.006;2023-02-17T07:58:54;3.50;;;3.20;;
30519;SDS011;17300;50.374;8.006;2023-02-17T08:01:21;3.40;;;3.10;;
30519;SDS011;17300;50.374;8.006;2023-02-17T08:03:50;3.90;;;3.47;;
30519;SDS011;17300;50.374;8.006;2023-02-17T08:06:18;2.97;;;2.73;;
30519;SDS011;17300;50.374;8.006;2023-02-17T08:08:46;3.33;;;3.07;;
30519;SDS011;17300;50.374;8.006;2023-02-17T08:11:33;3.03;;;2.83;;
30519;SDS011;17300;50.374;8.006;2023-02-17T08:14:18;3.13;;;2.83;;
30519;SDS011;17300;50.374;8.006;2023-02-17T08:16:46;2.90;;;2.70;;
30519;SDS011;17300;50.374;8.006;2023-02-17T08:19:12;2.80;;;2.60;;
30519;SDS011;17300;50.374;8.006;2023-02-17T08:21:39;3.10;;;2.80;;
30519;SDS011;17300;50.374;8.006;2023-02-17T08:24:06;3.30;;;3.00;;
30519;SDS011;17300;50.374;8.006;2023-02-17T08:26:34;9.50;;;2.77;;
30519;SDS011;17300;50.374;8.006;2023-02-17T08:29:00;3.00;;;2.80;;
30519;SDS011;17300;50.374;8.006;2023-02-17T08:31:28;2.80;;;2.60;;
30519;SDS011;17300;50.374;8.006;2023-02-17T08:33:56;2.60;;;2.40;;
30519;SDS011;17300;50.374;8.006;2023-02-17T08:36:23;3.03;;;2.73;;
30519;SDS011;17300;50.374;8.006;2023-02-17T08:38:50;2.87;;;2.67;;
30519;SDS011;17300;50.374;8.006;2023-02-17T08:41:19;2.80;;;2.60;;
30519;SDS011;17300;50.374;8.006;2023-02-17T08:43:49;4.07;;;2.47;;
30519;SDS011;17300;50.374;8.006;2023-02-17T08:46:16;2.70;;;2.50;;
30519;SDS011;17300;50.374;8.006;2023-02-17T08:48:43;3.03;;;2.73;;
30519;SDS011;17300;50.374;8.006;2023-02-17T08:51:11;2.83;;;2.63;;
30519;SDS011;17300;50.374;8.006;2023-02-17T08:53:38;2.90;;;2.70;;
30519;SDS011;17300;50.374;8.006;2023-02-17T08:56:05;2.60;;;2.40;;
30519;SDS011;17300;50.374;8.006;2023-02-17T08:58:32;3.20;;;2.90;;
30519;SDS011;17300;50.374;8.006;2023-02-17T09:01:00;2.73;;;2.53;;
30519;SDS011;17300;50.374;8.006;2023-02-17T09:03:27;2.73;;;2.53;;
30519;SDS011;17300;50.374;8.006;2023-02-17T09:05:54;3.17;;;2.87;;
30519;SDS011;17300;50.374;8.006;2023-02-17T09:08:21;2.83;;;2.60;;
30519;SDS011;17300;50.374;8.006;2023-02-17T09:10:48;2.67;;;2.47;;
30519;SDS011;17300;50.374;8.006;2023-02-17T09:13:15;2.40;;;2.20;;
30519;SDS011;17300;50.374;8.006;2023-02-17T09:15:42;2.60;;;2.40;;
30519;SDS011;17300;50.374;8.006;2023-02-17T09:18:10;2.57;;;2.37;;
30519;SDS011;17300;50.374;8.006;2023-02-17T09:20:37;2.67;;;2.47;;
30519;SDS011;17300;50.374;8.006;2023-02-17T09:23:04;2.83;;;2.17;;
30519;SDS011;17300;50.374;8.006;2023-02-17T09:25:30;2.57;;;2.40;;
30519;SDS011;17300;50.374;8.006;2023-02-17T09:27:57;2.90;;;2.20;;
30519;SDS011;17300;50.374;8.006;2023-02-17T09:30:24;2.13;;;2.03;;
30519;SDS011;17300;50.374;8.006;2023-02-17T09:32:51;2.40;;;1.90;;
30519;SDS011;17300;50.374;8.006;2023-02-17T09:35:19;2.20;;;2.00;;
30519;SDS011;17300;50.374;8.006;2023-02-17T09:37:46;2.40;;;2.20;;
30519;SDS011;17300;50.374;8.006;2023-02-17T09:40:14;3.13;;;2.50;;
30519;SDS011;17300;50.374;8.006;2023-02-17T09:42:43;3.27;;;2.20;;
30519;SDS011;17300;50.374;8.006;2023-02-17T09:45:11;2.50;;;2.30;;
30519;SDS011;17300;50.374;8.006;2023-02-17T09:47:42;2.30;;;2.10;;
30519;SDS011;17300;50.374;8.006;2023-02-17T09:50:13;2.60;;;2.40;;
30519;SDS011;17300;50.374;8.006;2023-02-17T09:52:45;2.47;;;2.27;;
30519;SDS011;17300;50.374;8.006;2023-02-17T09:55:21;2.03;;;1.93;;
30519;SDS011;17300;50.374;8.006;2023-02-17T09:57:52;2.60;;;2.40;;
30519;SDS011;17300;50.374;8.006;2023-02-17T10:00:23;2.43;;;2.23;;
30519;SDS011;17300;50.374;8.006;2023-02-17T10:02:54;2.60;;;2.40;;
30519;SDS011;17300;50.374;8.006;2023-02-17T10:05:24;2.10;;;2.00;;
30519;SDS011;17300;50.374;8.006;2023-02-17T10:07:56;2.27;;;2.07;;
30519;SDS011;17300;50.374;8.006;2023-02-17T10:10:27;2.03;;;1.93;;
30519;SDS011;17300;50.374;8.006;2023-02-17T10:12:59;2.30;;;2.10;;
30519;SDS011;17300;50.374;8.006;2023-02-17T10:15:29;1.87;;;1.77;;
30519;SDS011;17300;50.374;8.006;2023-02-17T10:18:03;1.80;;;1.70;;
30519;SDS011;17300;50.374;8.006;2023-02-17T10:20:36;1.90;;;1.80;;
30519;SDS011;17300;50.374;8.006;2023-02-17T10:23:09;1.73;;;1.63;;
30519;SDS011;17300;50.374;8.006;2023-02-17T10:25:43;1.93;;;1.83;;
30519;SDS011;17300;50.374;8.006;2023-02-17T10:28:25;2.07;;;1.97;;
30519;SDS011;17300;50.374;8.006;2023-02-17T10:31:03;2.20;;;2.00;;
30519;SDS011;17300;50.374;8.006;2023-02-17T10:33:37;1.83;;;1.73;;
30519;SDS011;17300;50.374;8.006;2023-02-17T10:36:13;1.73;;;1.63;;
30519;SDS011;17300;50.374;8.006;2023-02-17T10:38:51;1.50;;;1.40;;
30519;SDS011;17300;50.374;8.006;2023-02-17T10:41:21;1.90;;;1.80;;
30519;SDS011;17300;50.374;8.006;2023-02-17T10:43:57;1.70;;;1.60;;
30519;SDS011;17300;50.374;8.006;2023-02-17T10:46:26;1.60;;;1.50;;
30519;SDS011;17300;50.374;8.006;2023-02-17T10:48:55;1.63;;;1.53;;
30519;SDS011;17300;50.374;8.006;2023-02-17T10:51:24;1.70;;;1.60;;
30519;SDS011;17300;50.374;8.006;2023-02-17T10:53:55;1.53;;;1.43;;
30519;SDS011;17300;50.374;8.006;2023-02-17T10:56:26;1.60;;;1.50;;
30519;SDS011;17300;50.374;8.006;2023-02-17T10:58:58;1.43;;;1.33;;
30519;SDS011;17300;50.374;8.006;2023-02-17T11:01:30;1.57;;;1.47;;
30519;SDS011;17300;50.374;8.006;2023-02-17T11:03:59;1.80;;;1.70;;
30519;SDS011;17300;50.374;8.006;2023-02-17T11:06:27;1.70;;;1.60;;
30519;SDS011;17300;50.374;8.006;2023-02-17T11:08:58;1.50;;;1.40;;
30519;SDS011;17300;50.374;8.006;2023-02-17T11:11:26;2.00;;;1.80;;
30519;SDS011;17300;50.374;8.006;2023-02-17T11:13:57;1.70;;;1.60;;
30519;SDS011;17300;50.374;8.006;2023-02-17T11:16:31;1.70;;;1.60;;
30519;SDS011;17300;50.374;8.006;2023-02-17T11:18:59;1.40;;;1.30;;
30519;SDS011;17300;50.374;8.006;2023-02-17T11:21:27;1.60;;;1.50;;
30519;SDS011;17300;50.374;8.006;2023-02-17T11:23:55;1.70;;;1.60;;
30519;SDS011;17300;50.374;8.006;2023-02-17T11:26:26;1.60;;;1.50;;
30519;SDS011;17300;50.374;8.006;2023-02-17T11:29:05;1.40;;;1.30;;
30519;SDS011;17300;50.374;8.006;2023-02-17T11:31:32;1.43;;;1.33;;
30519;SDS011;17300;50.374;8.006;2023-02-17T11:34:11;1.43;;;1.33;;
30519;SDS011;17300;50.374;8.006;2023-02-17T11:36:39;1.70;;;1.60;;
30519;SDS011;17300;50.374;8.006;2023-02-17T11:39:16;1.40;;;1.30;;
30519;SDS011;17300;50.374;8.006;2023-02-17T11:41:45;1.50;;;1.40;;
30519;SDS011;17300;50.374;8.006;2023-02-17T11:44:20;1.50;;;1.40;;
30519;SDS011;17300;50.374;8.006;2023-02-17T11:46:50;1.77;;;1.67;;
30519;SDS011;17300;50.374;8.006;2023-02-17T11:49:28;1.50;;;1.40;;
30519;SDS011;17300;50.374;8.006;2023-02-17T11:52:11;1.60;;;1.50;;
30519;SDS011;17300;50.374;8.006;2023-02-17T11:54:48;1.23;;;1.20;;
30519;SDS011;17300;50.374;8.006;2023-02-17T11:57:28;1.30;;;1.20;;
30519;SDS011;17300;50.374;8.006;2023-02-17T12:00:08;1.00;;;1.00;;
30519;SDS011;17300;50.374;8.006;2023-02-17T12:02:45;0.83;;;0.83;;
30519;SDS011;17300;50.374;8.006;2023-02-17T12:05:29;1.00;;;1.00;;
30519;SDS011;17300;50.374;8.006;2023-02-17T12:08:04;1.00;;;1.00;;
30519;SDS011;17300;50.374;8.006;2023-02-17T12:10:44;0.90;;;0.90;;
30519;SDS011;17300;50.374;8.006;2023-02-17T12:13:27;1.20;;;1.10;;
30519;SDS011;17300;50.374;8.006;2023-02-17T12:16:07;1.33;;;1.23;;
30519;SDS011;17300;50.374;8.006;2023-02-17T12:18:55;0.90;;;0.90;;
30519;SDS011;17300;50.374;8.006;2023-02-17T12:21:33;0.80;;;0.80;;
30519;SDS011;17300;50.374;8.006;2023-02-17T12:24:21;0.70;;;0.70;;
30519;SDS011;17300;50.374;8.006;2023-02-17T12:27:07;1.00;;;0.90;;
30519;SDS011;17300;50.374;8.006;2023-02-17T12:29:58;1.10;;;1.00;;
30519;SDS011;17300;50.374;8.006;2023-02-17T12:32:33;0.70;;;0.70;;
30519;SDS011;17300;50.374;8.006;2023-02-17T12:35:13;0.70;;;0.70;;
30519;SDS011;17300;50.374;8.006;2023-02-17T12:37:44;0.60;;;0.60;;
30519;SDS011;17300;50.374;8.006;2023-02-17T12:40:19;0.70;;;0.70;;
30519;SDS011;17300;50.374;8.006;2023-02-17T12:43:00;0.80;;;0.80;;
30519;SDS011;17300;50.374;8.006;2023-02-17T12:45:35;1.07;;;0.97;;
30519;SDS011;17300;50.374;8.006;2023-02-17T12:48:09;1.67;;;0.80;;
30519;SDS011;17300;50.374;8.006;2023-02-17T12:50:41;0.70;;;0.70;;
30519;SDS011;17300;50.374;8.006;2023-02-17T12:53:18;0.60;;;0.60;;
30519;SDS011;17300;50.374;8.006;2023-02-17T12:55:52;0.57;;;0.57;;
30519;SDS011;17300;50.374;8.006;2023-02-17T12:58:24;0.60;;;0.60;;
30519;SDS011;17300;50.374;8.006;2023-02-17T13:00:56;0.50;;;0.50;;
30519;SDS011;17300;50.374;8.006;2023-02-17T13:03:27;0.60;;;0.60;;
30519;SDS011;17300;50.374;8.006;2023-02-17T13:05:56;0.60;;;0.60;;
30519;SDS011;17300;50.374;8.006;2023-02-17T13:08:28;0.50;;;0.50;;
30519;SDS011;17300;50.374;8.006;2023-02-17T13:11:01;0.50;;;0.50;;
30519;SDS011;17300;50.374;8.006;2023-02-17T13:13:31;0.50;;;0.50;;
30519;SDS011;17300;50.374;8.006;2023-02-17T13:16:00;0.60;;;0.60;;
30519;SDS011;17300;50.374;8.006;2023-02-17T13:18:30;0.50;;;0.50;;
30519;SDS011;17300;50.374;8.006;2023-02-17T13:20:59;1.20;;;0.53;;
30519;SDS011;17300;50.374;8.006;2023-02-17T13:23:33;0.50;;;0.50;;
30519;SDS011;17300;50.374;8.006;2023-02-17T13:26:07;0.40;;;0.40;;
30519;SDS011;17300;50.374;8.006;2023-02-17T13:28:51;0.50;;;0.50;;
30519;SDS011;17300;50.374;8.006;2023-02-17T13:31:19;1.20;;;0.50;;
30519;SDS011;17300;50.374;8.006;2023-02-17T13:33:49;0.40;;;0.40;;
30519;SDS011;17300;50.374;8.006;2023-02-17T13:36:18;0.47;;;0.47;;
30519;SDS011;17300;50.374;8.006;2023-02-17T13:38:54;0.93;;;0.47;;
30519;SDS011;17300;50.374;8.006;2023-02-17T13:41:24;0.50;;;0.50;;
30519;SDS011;17300;50.374;8.006;2023-02-17T13:43:53;0.40;;;0.40;;
30519;SDS011;17300;50.374;8.006;2023-02-17T13:46:20;0.47;;;0.43;;
30519;SDS011;17300;50.374;8.006;2023-02-17T13:48:57;0.40;;;0.40;;
30519;SDS011;17300;50.374;8.006;2023-02-17T13:51:25;0.40;;;0.40;;
30519;SDS011;17300;50.374;8.006;2023-02-17T13:53:53;0.60;;;0.60;;
30519;SDS011;17300;50.374;8.006;2023-02-17T13:56:24;0.50;;;0.50;;
30519;SDS011;17300;50.374;8.006;2023-02-17T13:58:54;0.60;;;0.47;;
30519;SDS011;17300;50.374;8.006;2023-02-17T14:01:33;0.40;;;0.40;;
30519;SDS011;17300;50.374;8.006;2023-02-17T14:04:02;0.30;;;0.30;;
30519;SDS011;17300;50.374;8.006;2023-02-17T14:06:31;0.60;;;0.40;;
30519;SDS011;17300;50.374;8.006;2023-02-17T14:09:10;0.40;;;0.40;;
30519;SDS011;17300;50.374;8.006;2023-02-17T14:11:40;0.43;;;0.43;;
30519;SDS011;17300;50.374;8.006;2023-02-17T14:14:09;0.50;;;0.40;;
30519;SDS011;17300;50.374;8.006;2023-02-17T14:16:36;0.50;;;0.40;;
30519;SDS011;17300;50.374;8.006;2023-02-17T14:19:05;0.50;;;0.50;;
30519;SDS011;17300;50.374;8.006;2023-02-17T14:21:33;0.50;;;0.50;;
30519;SDS011;17300;50.374;8.006;2023-02-17T14:24:00;0.40;;;0.40;;
30519;SDS011;17300;50.374;8.006;2023-02-17T14:26:29;0.40;;;0.40;;
30519;SDS011;17300;50.374;8.006;2023-02-17T14:28:57;0.40;;;0.40;;
30519;SDS011;17300;50.374;8.006;2023-02-17T14:31:27;0.40;;;0.40;;
30519;SDS011;17300;50.374;8.006;2023-02-17T14:33:55;0.33;;;0.33;;
30519;SDS011;17300;50.374;8.006;2023-02-17T14:36:27;0.30;;;0.30;;
30519;SDS011;17300;50.374;8.006;2023-02-17T14:38:59;0.40;;;0.40;;
30519;SDS011;17300;50.374;8.006;2023-02-17T14:41:27;0.40;;;0.40;;
30519;SDS011;17300;50.374;8.006;2023-02-17T14:43:54;0.50;;;0.50;;
30519;SDS011;17300;50.374;8.006;2023-02-17T14:46:21;0.40;;;0.40;;
30519;SDS011;17300;50.374;8.006;2023-02-17T14:48:49;0.50;;;0.50;;
30519;SDS011;17300;50.374;8.006;2023-02-17T14:51:17;0.30;;;0.30;;
30519;SDS011;17300;50.374;8.006;2023-02-17T14:53:45;0.80;;;0.70;;
30519;SDS011;17300;50.374;8.006;2023-02-17T14:56:14;0.30;;;0.30;;
30519;SDS011;17300;50.374;8.006;2023-02-17T14:58:45;0.40;;;0.40;;
30519;SDS011;17300;50.374;8.006;2023-02-17T15:01:13;0.47;;;0.47;;
30519;SDS011;17300;50.374;8.006;2023-02-17T15:03:41;0.40;;;0.40;;